createdAt,value
2019-03-31T00:01:08.491Z,101660.77
2019-03-31T00:03:36.744Z,101640.37
2019-03-31T00:06:08.457Z,101649.95
2019-03-31T00:08:40.298Z,101657.55
2019-03-31T00:11:12.095Z,101675.88
2019-03-31T00:13:43.946Z,101687.95
2019-03-31T00:16:15.834Z,101687.89
2019-03-31T00:18:48.683Z,101685.41
2019-03-31T00:21:20.502Z,101682.62
2019-03-31T00:23:52.358Z,101683.97
2019-03-31T00:26:24.208Z,101680.23
2019-03-31T00:28:56.038Z,101680.81
2019-03-31T00:31:27.808Z,101681.11
2019-03-31T00:33:59.598Z,101686.77
2019-03-31T00:36:32.639Z,101678.64
2019-03-31T00:39:06.700Z,101674.88
2019-03-31T00:41:38.448Z,101671.97
2019-03-31T00:44:10.272Z,101667.48
2019-03-31T00:46:42.213Z,101665.38
2019-03-31T00:49:14.509Z,101667.14
2019-03-31T00:51:46.264Z,101669.42
2019-03-31T00:54:17.989Z,101661.27
2019-03-31T00:56:50.779Z,101658.84
2019-03-31T00:59:22.537Z,101659.27
2019-03-31T01:01:56.795Z,101667.14
2019-03-31T01:04:30.922Z,101665.78
2019-03-31T01:07:03.067Z,101658.45
2019-03-31T01:09:35.396Z,101669.23
2019-03-31T01:12:07.697Z,101669.52
2019-03-31T01:14:40.168Z,101660.99
2019-03-31T01:17:12.673Z,101667.03
2019-03-31T01:19:45.080Z,101660.77
2019-03-31T01:22:17.051Z,101673.89
2019-03-31T01:24:48.812Z,101665.98
2019-03-31T01:27:22.100Z,101670.86
2019-03-31T01:29:54.313Z,101665.58
2019-03-31T01:32:26.467Z,101672.73
2019-03-31T01:34:58.504Z,101672.09
2019-03-31T01:37:31.399Z,101664.34
2019-03-31T01:40:03.312Z,101658.52
2019-03-31T01:42:36.047Z,101659.81
2019-03-31T01:45:08.184Z,101665.76
2019-03-31T01:47:40.030Z,101654.47
2019-03-31T01:50:14.218Z,101664.06
2019-03-31T01:52:46.344Z,101658.09
2019-03-31T01:55:18.975Z,101651.25
2019-03-31T01:57:50.806Z,101653.70
2019-03-31T02:00:36.901Z,101641.98
2019-03-31T02:03:08.823Z,101640.47
2019-03-31T02:05:41.232Z,101641.34
2019-03-31T02:08:12.953Z,101644.13
2019-03-31T02:10:44.721Z,101641.11
2019-03-31T02:13:16.586Z,101646.41
2019-03-31T02:15:48.956Z,101658.38
2019-03-31T02:18:20.700Z,101669.07
2019-03-31T02:20:52.479Z,101753.94
2019-03-31T02:23:24.289Z,101762.55
2019-03-31T02:25:56.090Z,101764.27
2019-03-31T02:28:28.064Z,101779.00
2019-03-31T02:30:59.823Z,101780.99
2019-03-31T02:33:32.501Z,101789.60
2019-03-31T02:36:04.750Z,101794.94
2019-03-31T02:38:36.561Z,101797.96
2019-03-31T02:41:08.809Z,101792.66
2019-03-31T02:43:40.593Z,101801.06
2019-03-31T02:46:12.429Z,101810.49
2019-03-31T02:48:44.395Z,101807.23
2019-03-31T02:51:16.227Z,101806.64
2019-03-31T02:53:48.173Z,101807.63
2019-03-31T02:56:20.315Z,101820.47
2019-03-31T02:58:52.469Z,101826.48
2019-03-31T03:01:25.399Z,101828.86
2019-03-31T03:03:58.619Z,101832.32
2019-03-31T03:06:32.551Z,101836.83
2019-03-31T03:09:07.551Z,101840.45
2019-03-31T03:11:42.105Z,101843.48
2019-03-31T03:14:15.194Z,101844.02
2019-03-31T03:16:47.040Z,101849.91
2019-03-31T03:19:18.814Z,101853.91
2019-03-31T03:21:50.988Z,101857.91
2019-03-31T03:24:22.809Z,101864.61
2019-03-31T03:26:54.970Z,101873.41
2019-03-31T03:29:26.718Z,101866.12
2019-03-31T03:31:58.989Z,101868.67
2019-03-31T03:34:31.772Z,101881.70
2019-03-31T03:37:03.565Z,101876.81
2019-03-31T03:39:35.270Z,101876.35
2019-03-31T03:42:07.169Z,101884.37
2019-03-31T03:44:38.978Z,101888.38
2019-03-31T03:47:10.748Z,101890.63
2019-03-31T03:49:42.529Z,101887.10
2019-03-31T03:52:14.163Z,101893.64
2019-03-31T03:54:50.839Z,101893.25
2019-03-31T03:57:22.998Z,101894.16
2019-03-31T03:59:54.817Z,101893.20
2019-03-31T04:02:26.685Z,101889.50
2019-03-31T04:04:58.506Z,101894.31
2019-03-31T04:07:30.280Z,101893.94
2019-03-31T04:10:02.057Z,101895.05
2019-03-31T04:12:34.360Z,101895.08
2019-03-31T04:15:06.444Z,101897.28
2019-03-31T04:17:38.317Z,101901.30
2019-03-31T04:20:10.192Z,101903.12
2019-03-31T04:22:42.014Z,101906.22
2019-03-31T04:25:13.838Z,101911.76
2019-03-31T04:27:45.716Z,101908.53
2019-03-31T04:30:17.582Z,101904.70
2019-03-31T04:32:50.001Z,101910.77
2019-03-31T04:35:21.811Z,101917.89
2019-03-31T04:37:53.592Z,101925.72
2019-03-31T04:40:25.725Z,101926.02
2019-03-31T04:43:01.012Z,101924.98
2019-03-31T04:45:32.752Z,101931.23
2019-03-31T04:48:04.796Z,101933.98
2019-03-31T04:50:36.584Z,101934.18
2019-03-31T04:53:08.370Z,101933.19
2019-03-31T04:55:40.535Z,101946.44
2019-03-31T04:58:12.346Z,101944.28
2019-03-31T05:00:45.322Z,101948.39
2019-03-31T05:03:17.046Z,101945.53
2019-03-31T05:05:48.801Z,101947.61
2019-03-31T05:08:21.026Z,101951.55
2019-03-31T05:10:53.196Z,101954.94
2019-03-31T05:13:25.442Z,101963.70
2019-03-31T05:15:57.144Z,101960.70
2019-03-31T05:18:29.272Z,101971.73
2019-03-31T05:21:01.401Z,101972.24
2019-03-31T05:23:33.262Z,101969.25
2019-03-31T05:26:05.429Z,101979.48
2019-03-31T05:28:37.235Z,101975.69
2019-03-31T05:31:09.141Z,101986.45
2019-03-31T05:33:40.960Z,101984.48
2019-03-31T05:36:12.723Z,101998.41
2019-03-31T05:38:44.599Z,101997.03
2019-03-31T05:41:17.263Z,101998.28
2019-03-31T05:43:49.475Z,102006.08
2019-03-31T05:46:21.252Z,102010.66
2019-03-31T05:48:53.511Z,102007.60
2019-03-31T05:51:25.348Z,102005.29
2019-03-31T05:53:57.627Z,102019.14
2019-03-31T05:56:29.433Z,102026.11
2019-03-31T05:59:01.296Z,102026.60
2019-03-31T06:01:33.193Z,102036.32
2019-03-31T06:04:05.469Z,102038.06
2019-03-31T06:06:41.973Z,102047.61
2019-03-31T06:09:13.755Z,102052.05
2019-03-31T06:11:45.590Z,102051.66
2019-03-31T06:14:17.887Z,102057.33
2019-03-31T06:16:51.175Z,102068.38
2019-03-31T06:19:22.883Z,102074.16
2019-03-31T06:21:55.895Z,102078.48
2019-03-31T06:24:27.791Z,102080.38
2019-03-31T06:26:59.565Z,102090.95
2019-03-31T06:29:31.408Z,102095.20
2019-03-31T06:32:03.129Z,102103.27
2019-03-31T06:34:46.865Z,102101.73
2019-03-31T06:37:08.386Z,102112.89
2019-03-31T06:39:40.273Z,102111.12
2019-03-31T06:42:12.014Z,102114.16
2019-03-31T06:44:44.710Z,102117.20
2019-03-31T06:47:16.396Z,102113.41
2019-03-31T06:49:49.399Z,102124.25
2019-03-31T06:52:21.471Z,102128.67
2019-03-31T06:54:53.254Z,102140.77
2019-03-31T06:57:26.814Z,102137.08
2019-03-31T06:59:58.566Z,102140.91
2019-03-31T07:02:30.259Z,102141.38
2019-03-31T07:05:02.168Z,102143.94
2019-03-31T07:07:35.373Z,102149.87
2019-03-31T07:10:07.909Z,102158.42
2019-03-31T07:12:40.013Z,102157.66
2019-03-31T07:15:46.140Z,102160.64
2019-03-31T07:18:18.036Z,102156.23
2019-03-31T07:20:50.020Z,102171.84
2019-03-31T07:23:23.603Z,102170.14
2019-03-31T07:25:55.309Z,102171.02
2019-03-31T07:28:27.119Z,102185.63
2019-03-31T07:30:59.858Z,102177.63
2019-03-31T07:33:31.834Z,102182.67
2019-03-31T07:36:04.535Z,102185.86
2019-03-31T07:38:39.299Z,102201.69
2019-03-31T07:41:12.896Z,102199.38
2019-03-31T07:43:44.730Z,102204.38
2019-03-31T07:46:16.597Z,102204.19
2019-03-31T07:48:48.900Z,102211.36
2019-03-31T07:51:20.661Z,102216.67
2019-03-31T07:53:52.471Z,102211.45
2019-03-31T07:56:24.334Z,102209.19
2019-03-31T07:58:56.261Z,102216.64
2019-03-31T08:01:28.244Z,102219.17
2019-03-31T08:03:59.961Z,102223.70
2019-03-31T08:06:31.762Z,102223.70
2019-03-31T08:09:04.828Z,102230.09
2019-03-31T08:11:36.670Z,102226.11
2019-03-31T08:14:08.869Z,102227.47
2019-03-31T08:16:40.577Z,102244.20
2019-03-31T08:19:12.808Z,102242.15
2019-03-31T08:21:44.505Z,102235.43
2019-03-31T08:24:16.447Z,102237.34
2019-03-31T08:26:48.533Z,102234.19
2019-03-31T08:29:20.667Z,102257.66
2019-03-31T08:31:52.488Z,102260.27
2019-03-31T08:34:24.279Z,102251.91
2019-03-31T08:36:56.142Z,102262.45
2019-03-31T08:39:27.975Z,102264.03
2019-03-31T08:42:00.067Z,102267.36
2019-03-31T08:44:31.860Z,102267.92
2019-03-31T08:47:04.845Z,102268.95
2019-03-31T08:49:36.690Z,102267.95
2019-03-31T08:52:08.441Z,102278.89
2019-03-31T08:54:40.680Z,102292.66
2019-03-31T08:57:12.488Z,102293.94
2019-03-31T08:59:44.281Z,102291.82
2019-03-31T09:02:30.685Z,102290.83
2019-03-31T09:05:02.942Z,102288.78
2019-03-31T09:07:34.774Z,102296.00
2019-03-31T09:10:09.349Z,102305.47
2019-03-31T09:12:41.063Z,102311.61
2019-03-31T09:15:14.097Z,102312.07
2019-03-31T09:17:46.071Z,102317.33
2019-03-31T09:20:18.236Z,102334.75
2019-03-31T09:22:50.130Z,102332.81
2019-03-31T09:25:21.934Z,102339.94
2019-03-31T09:27:53.717Z,102341.80
2019-03-31T09:30:25.762Z,102348.83
2019-03-31T09:32:57.695Z,102345.75
2019-03-31T09:35:30.583Z,102351.29
2019-03-31T09:38:02.380Z,102355.08
2019-03-31T09:40:34.511Z,102361.91
2019-03-31T09:43:06.266Z,102362.63
2019-03-31T09:45:38.004Z,102358.19
2019-03-31T09:48:09.806Z,102351.16
2019-03-31T09:50:41.563Z,102355.87
2019-03-31T09:53:13.374Z,102366.94
2019-03-31T09:55:45.684Z,102362.09
2019-03-31T09:58:17.529Z,102361.27
2019-03-31T10:00:51.613Z,102357.59
2019-03-31T10:03:23.587Z,102371.09
2019-03-31T10:06:09.386Z,102359.71
2019-03-31T10:08:29.347Z,102362.25
2019-03-31T10:11:02.824Z,102362.35
2019-03-31T10:13:34.606Z,102366.69
2019-03-31T10:16:06.364Z,102365.84
2019-03-31T10:18:38.193Z,102356.27
2019-03-31T10:21:09.947Z,102362.16
2019-03-31T10:23:41.707Z,102365.96
2019-03-31T10:26:16.070Z,102365.55
2019-03-31T10:28:46.946Z,102358.98
2019-03-31T10:31:21.846Z,102350.03
2019-03-31T10:33:53.914Z,102357.11
2019-03-31T10:36:25.644Z,102357.91
2019-03-31T10:38:58.469Z,102364.23
2019-03-31T10:41:31.049Z,102371.33
2019-03-31T10:44:02.961Z,102376.36
2019-03-31T10:46:37.737Z,102367.64
2019-03-31T10:49:09.479Z,102379.37
2019-03-31T10:51:41.301Z,102368.58
2019-03-31T10:54:13.099Z,102360.02
2019-03-31T10:56:44.862Z,102366.01
2019-03-31T10:59:16.913Z,102363.20
2019-03-31T11:01:50.077Z,102362.14
2019-03-31T11:04:21.825Z,102365.39
2019-03-31T11:06:59.509Z,102376.05
2019-03-31T11:09:27.010Z,102370.77
2019-03-31T11:11:59.588Z,102369.50
2019-03-31T11:14:31.857Z,102374.16
2019-03-31T11:17:03.669Z,102369.45
2019-03-31T11:19:35.394Z,102370.09
2019-03-31T11:22:16.911Z,102377.11
2019-03-31T11:24:48.714Z,102386.45
2019-03-31T11:27:20.416Z,102379.30
2019-03-31T11:29:52.250Z,102387.00
2019-03-31T11:32:23.961Z,102391.49
2019-03-31T11:34:55.741Z,102388.09
2019-03-31T11:37:27.486Z,102393.67
2019-03-31T11:39:59.288Z,102391.19
2019-03-31T11:42:31.032Z,102392.45
2019-03-31T11:45:02.925Z,102399.83
2019-03-31T11:47:34.718Z,102393.45
2019-03-31T11:50:07.535Z,102398.08
2019-03-31T11:52:39.704Z,102408.17
2019-03-31T11:55:11.593Z,102398.38
2019-03-31T11:57:43.360Z,102394.21
2019-03-31T12:00:18.828Z,102394.65
2019-03-31T12:02:50.790Z,102401.31
2019-03-31T12:05:22.654Z,102406.80
2019-03-31T12:07:54.534Z,102400.58
2019-03-31T12:10:26.372Z,102397.72
2019-03-31T12:12:58.583Z,102404.73
2019-03-31T12:15:30.339Z,102402.66
2019-03-31T12:18:02.086Z,102398.25
2019-03-31T12:20:33.939Z,102402.73
2019-03-31T12:23:05.696Z,102392.27
2019-03-31T12:25:37.436Z,102386.83
2019-03-31T12:28:09.250Z,102392.84
2019-03-31T12:30:40.966Z,102401.27
2019-03-31T12:33:12.699Z,102394.63
2019-03-31T12:35:44.446Z,102388.34
2019-03-31T12:38:16.311Z,102394.56
2019-03-31T12:40:48.211Z,102397.88
2019-03-31T12:43:19.925Z,102403.26
2019-03-31T12:45:53.051Z,102395.59
2019-03-31T12:48:25.126Z,102404.83
2019-03-31T12:50:57.265Z,102407.27
2019-03-31T12:53:29.070Z,102397.41
2019-03-31T12:56:00.859Z,102404.62
2019-03-31T12:58:32.661Z,102403.50
2019-03-31T13:01:04.668Z,102405.53
2019-03-31T13:03:36.906Z,102396.88
2019-03-31T13:06:08.558Z,102399.25
2019-03-31T13:08:43.958Z,102401.91
2019-03-31T13:11:14.933Z,102408.98
2019-03-31T13:13:46.686Z,102400.11
2019-03-31T13:16:18.474Z,102407.58
2019-03-31T13:18:50.227Z,102405.73
2019-03-31T13:21:22.001Z,102407.58
2019-03-31T13:23:53.717Z,102411.46
2019-03-31T13:26:25.840Z,102403.09
2019-03-31T13:28:57.626Z,102407.11
2019-03-31T13:31:29.746Z,102393.72
2019-03-31T13:34:01.971Z,102398.94
2019-03-31T13:36:34.102Z,102397.98
2019-03-31T13:39:08.013Z,102405.54
2019-03-31T13:41:39.936Z,102409.25
2019-03-31T13:44:11.788Z,102409.41
2019-03-31T13:46:43.662Z,102412.60
2019-03-31T13:49:15.397Z,102408.81
2019-03-31T13:51:47.169Z,102403.86
2019-03-31T13:54:20.022Z,102408.20
2019-03-31T13:56:52.613Z,102400.12
2019-03-31T13:59:24.772Z,102405.55
2019-03-31T14:02:00.047Z,102400.61
2019-03-31T14:04:30.405Z,102403.33
2019-03-31T14:07:04.438Z,102395.77
2019-03-31T14:09:36.234Z,102396.77
2019-03-31T14:12:08.138Z,102390.13
2019-03-31T14:14:39.957Z,102395.07
2019-03-31T14:17:11.811Z,102387.34
2019-03-31T14:19:43.583Z,102399.45
2019-03-31T14:22:15.773Z,102406.39
2019-03-31T14:24:47.593Z,102402.94
2019-03-31T14:27:19.413Z,102406.90
2019-03-31T14:29:51.147Z,102405.55
2019-03-31T14:32:22.866Z,102409.56
2019-03-31T14:34:54.660Z,102402.24
2019-03-31T14:37:26.587Z,102401.91
2019-03-31T14:39:58.339Z,102403.80
2019-03-31T14:42:30.072Z,102401.33
2019-03-31T14:45:01.824Z,102409.94
2019-03-31T14:47:33.696Z,102413.20
2019-03-31T14:50:06.330Z,102416.19
2019-03-31T14:52:38.153Z,102422.20
2019-03-31T14:55:09.945Z,102421.62
2019-03-31T14:57:41.667Z,102425.05
2019-03-31T15:00:15.331Z,102423.55
2019-03-31T15:02:47.254Z,102419.07
2019-03-31T15:05:18.929Z,102424.30
2019-03-31T15:07:50.666Z,102411.11
2019-03-31T15:10:22.741Z,102422.95
2019-03-31T15:12:54.934Z,102418.12
2019-03-31T15:15:26.633Z,102415.48
2019-03-31T15:17:58.480Z,102419.73
2019-03-31T15:20:31.470Z,102416.20
2019-03-31T15:23:05.657Z,102416.64
2019-03-31T15:25:37.358Z,102420.65
2019-03-31T15:28:09.140Z,102417.08
2019-03-31T15:30:40.822Z,102412.06
2019-03-31T15:33:12.614Z,102425.22
2019-03-31T15:35:44.802Z,102421.88
2019-03-31T15:38:16.583Z,102419.84
2019-03-31T15:40:48.711Z,102425.08
2019-03-31T15:43:20.713Z,102426.16
2019-03-31T15:45:52.860Z,102435.62
2019-03-31T15:48:24.671Z,102427.31
2019-03-31T15:50:56.829Z,102428.55
2019-03-31T15:53:28.560Z,102432.24
2019-03-31T15:56:00.263Z,102435.50
2019-03-31T15:58:32.198Z,102431.16
2019-03-31T16:01:03.947Z,102440.55
2019-03-31T16:03:38.600Z,102439.28
2019-03-31T16:06:10.464Z,102442.78
2019-03-31T16:08:41.608Z,102445.62
2019-03-31T16:11:12.814Z,102444.28
2019-03-31T16:13:43.935Z,102433.53
2019-03-31T16:16:15.106Z,102437.00
2019-03-31T16:18:46.289Z,102441.94
2019-03-31T16:21:17.523Z,102446.06
2019-03-31T16:23:48.701Z,102446.13
2019-03-31T16:26:19.975Z,102443.08
2019-03-31T16:28:51.582Z,102448.58
2019-03-31T16:31:23.554Z,102446.85
2019-03-31T16:33:54.836Z,102442.34
2019-03-31T16:36:25.994Z,102439.23
2019-03-31T16:38:57.192Z,102443.69
2019-03-31T16:41:28.750Z,102442.71
2019-03-31T16:44:00.397Z,102441.38
2019-03-31T16:46:31.677Z,102449.37
2019-03-31T16:49:02.959Z,102454.29
2019-03-31T16:51:34.132Z,102453.97
2019-03-31T16:54:05.392Z,102443.37
2019-03-31T16:56:37.203Z,102448.72
2019-03-31T16:59:08.428Z,102457.52
2019-03-31T17:01:39.730Z,102460.71
2019-03-31T17:04:11.292Z,102457.25
2019-03-31T17:06:42.976Z,102457.65
2019-03-31T17:09:14.122Z,102462.14
2019-03-31T17:11:45.416Z,102459.84
2019-03-31T17:14:16.665Z,102461.23
2019-03-31T17:16:47.891Z,102464.92
2019-03-31T17:19:19.454Z,102467.95
2019-03-31T17:21:53.948Z,102468.93
2019-03-31T17:24:25.196Z,102474.27
2019-03-31T17:26:56.632Z,102463.59
2019-03-31T17:29:27.911Z,102472.42
2019-03-31T17:31:59.110Z,102472.95
2019-03-31T17:34:30.433Z,102471.19
2019-03-31T17:37:01.597Z,102471.13
2019-03-31T17:39:33.217Z,102473.80
2019-03-31T17:42:04.424Z,102468.46
2019-03-31T17:44:38.212Z,102473.29
2019-03-31T17:47:09.464Z,102480.81
2019-03-31T17:49:40.660Z,102479.09
2019-03-31T17:52:11.866Z,102483.13
2019-03-31T17:54:43.297Z,102480.95
2019-03-31T17:57:14.440Z,102481.30
2019-03-31T17:59:45.858Z,102481.70
2019-03-31T18:02:17.190Z,102478.23
2019-03-31T18:04:48.750Z,102479.92
2019-03-31T18:07:20.052Z,102487.42
2019-03-31T18:09:51.583Z,102486.17
2019-03-31T18:12:23.099Z,102488.96
2019-03-31T18:14:54.315Z,102493.38
2019-03-31T18:17:25.552Z,102492.53
2019-03-31T18:19:56.802Z,102504.66
2019-03-31T18:22:28.594Z,102495.72
2019-03-31T18:25:01.623Z,102497.97
2019-03-31T18:27:33.229Z,102504.05
2019-03-31T18:30:04.689Z,102505.93
2019-03-31T18:32:35.920Z,102504.17
2019-03-31T18:35:07.959Z,102496.59
2019-03-31T18:37:39.536Z,102501.37
2019-03-31T18:40:10.837Z,102500.55
2019-03-31T18:42:41.980Z,102496.57
2019-03-31T18:45:13.288Z,102504.53
2019-03-31T18:47:44.460Z,102502.31
2019-03-31T18:50:15.815Z,102507.25
2019-03-31T18:52:47.425Z,102508.64
2019-03-31T18:55:31.151Z,102519.73
2019-03-31T18:58:19.819Z,102519.81
2019-03-31T19:01:12.833Z,102521.61
2019-03-31T19:04:09.313Z,102518.47
2019-03-31T19:06:46.291Z,102520.72
2019-03-31T19:09:36.115Z,102525.16
2019-03-31T19:12:42.557Z,102529.67
2019-03-31T19:15:23.392Z,102532.73
2019-03-31T19:18:19.706Z,102531.86
2019-03-31T19:21:12.374Z,102540.80
2019-03-31T19:24:14.956Z,102539.47
2019-03-31T19:27:05.139Z,102545.64
2019-03-31T19:29:59.140Z,102545.64
2019-03-31T19:32:49.332Z,102559.52
2019-03-31T19:35:38.967Z,102559.53
2019-03-31T19:38:28.381Z,102562.66
2019-03-31T19:41:30.790Z,102571.34
2019-03-31T19:44:17.873Z,102573.58
2019-03-31T19:47:08.123Z,102576.72
2019-03-31T19:49:56.712Z,102584.80
2019-03-31T19:52:52.578Z,102586.99
2019-03-31T19:55:48.596Z,102589.69
2019-03-31T19:58:34.756Z,102591.06
2019-03-31T20:01:27.748Z,102594.17
2019-03-31T20:04:24.096Z,102594.19
2019-03-31T20:07:20.473Z,102595.94
2019-03-31T20:10:10.668Z,102601.75
2019-03-31T20:13:09.977Z,102596.45
2019-03-31T20:15:56.333Z,102602.67
2019-03-31T20:18:52.476Z,102613.77
2019-03-31T20:21:45.121Z,102613.36
2019-03-31T20:24:40.605Z,102615.99
2019-03-31T20:27:37.689Z,102615.11
2019-03-31T20:30:17.560Z,102614.66
2019-03-31T20:33:10.899Z,102606.69
2019-03-31T20:36:01.597Z,102620.00
2019-03-31T20:38:51.627Z,102614.66
2019-03-31T20:41:36.847Z,102614.22
2019-03-31T20:44:08.077Z,102620.42
2019-03-31T20:46:39.513Z,102613.78
2019-03-31T20:49:13.064Z,102612.44
2019-03-31T20:51:44.313Z,102618.66
2019-03-31T20:54:15.534Z,102623.98
2019-03-31T20:56:46.908Z,102624.39
2019-03-31T20:59:18.042Z,102626.62
2019-03-31T21:01:49.279Z,102631.94
2019-03-31T21:04:20.970Z,102632.36
2019-03-31T21:06:52.248Z,102634.13
2019-03-31T21:09:23.452Z,102632.37
2019-03-31T21:11:54.680Z,102626.59
2019-03-31T21:14:26.598Z,102635.42
2019-03-31T21:16:57.778Z,102639.34
2019-03-31T21:19:29.065Z,102636.75
2019-03-31T21:22:00.431Z,102634.91
2019-03-31T21:24:31.779Z,102636.33
2019-03-31T21:27:02.982Z,102644.73
2019-03-31T21:29:34.703Z,102648.72
2019-03-31T21:32:06.007Z,102653.16
2019-03-31T21:34:37.915Z,102648.68
2019-03-31T21:37:11.640Z,102645.57
2019-03-31T21:39:42.819Z,102651.73
2019-03-31T21:42:14.157Z,102653.52
2019-03-31T21:44:45.386Z,102651.77
2019-03-31T21:47:16.618Z,102653.97
2019-03-31T21:49:48.152Z,102663.27
2019-03-31T21:52:19.336Z,102656.17
2019-03-31T21:54:51.885Z,102663.69
2019-03-31T21:57:23.008Z,102663.69
2019-03-31T21:59:54.199Z,102662.36
2019-03-31T22:02:26.444Z,102655.30
2019-03-31T22:04:57.648Z,102667.25
2019-03-31T22:07:30.539Z,102661.45
2019-03-31T22:10:01.779Z,102662.77
2019-03-31T22:12:33.060Z,102660.16
2019-03-31T22:15:04.578Z,102660.61
2019-03-31T22:17:35.869Z,102667.67
2019-03-31T22:20:07.283Z,102670.79
2019-03-31T22:22:38.559Z,102670.37
2019-03-31T22:25:11.407Z,102674.73
2019-03-31T22:27:42.629Z,102666.80
2019-03-31T22:30:14.006Z,102674.28
2019-03-31T22:32:45.244Z,102667.22
2019-03-31T22:35:16.408Z,102669.88
2019-03-31T22:37:47.704Z,102672.08
2019-03-31T22:40:18.979Z,102670.29
2019-03-31T22:42:50.197Z,102667.25
2019-03-31T22:45:21.739Z,102671.66
2019-03-31T22:48:20.074Z,102665.93
2019-03-31T22:50:51.300Z,102677.43
2019-03-31T22:53:22.526Z,102675.61
2019-03-31T22:55:54.452Z,102680.45
2019-03-31T22:58:25.608Z,102672.94
2019-03-31T23:00:56.841Z,102675.14
2019-03-31T23:03:28.101Z,102667.17
2019-03-31T23:05:59.806Z,102671.16
2019-03-31T23:08:31.860Z,102668.96
2019-03-31T23:11:03.144Z,102670.29
2019-03-31T23:13:34.403Z,102679.59
2019-03-31T23:16:06.033Z,102668.05
2019-03-31T23:18:37.251Z,102669.83
2019-03-31T23:21:08.550Z,102673.44
2019-03-31T23:23:40.146Z,102670.78
2019-03-31T23:26:11.430Z,102671.20
2019-03-31T23:28:49.264Z,102670.33
2019-03-31T23:31:23.269Z,102668.09
2019-03-31T23:33:54.626Z,102671.66
2019-03-31T23:36:26.512Z,102662.78
2019-03-31T23:38:59.215Z,102663.23
2019-03-31T23:41:30.698Z,102673.86
2019-03-31T23:44:01.920Z,102674.31
2019-03-31T23:46:35.864Z,102670.78
2019-03-31T23:49:06.356Z,102668.09
2019-03-31T23:51:38.929Z,102672.49
2019-03-31T23:54:10.146Z,102675.64
2019-03-31T23:56:41.698Z,102675.19
2019-03-31T23:59:13.456Z,102676.52
